sensor_id;sensor_type;location;lat;lon;timestamp;P1;durP1;ratioP1;P2;durP2;ratioP2
18249;SDS011;27980;52.126;5.572;2023-07-30T00:00:02;2.53;;;1.67;;
18249;SDS011;27980;52.126;5.572;2023-07-30T00:02:29;3.33;;;1.98;;
18249;SDS011;27980;52.126;5.572;2023-07-30T00:04:55;3.97;;;1.75;;
18249;SDS011;27980;52.126;5.572;2023-07-30T00:07:23;9.23;;;1.73;;
18249;SDS011;27980;52.126;5.572;2023-07-30T00:09:50;4.95;;;1.65;;
18249;SDS011;27980;52.126;5.572;2023-07-30T00:12:16;4.95;;;1.80;;
18249;SDS011;27980;52.126;5.572;2023-07-30T00:14:42;4.95;;;2.05;;
18249;SDS011;27980;52.126;5.572;2023-07-30T00:17:09;5.05;;;1.85;;
18249;SDS011;27980;52.126;5.572;2023-07-30T00:19:35;9.07;;;1.90;;
18249;SDS011;27980;52.126;5.572;2023-07-30T00:22:02;5.30;;;2.10;;
18249;SDS011;27980;52.126;5.572;2023-07-30T00:24:29;2.72;;;1.70;;
18249;SDS011;27980;52.126;5.572;2023-07-30T00:26:56;3.33;;;1.65;;
18249;SDS011;27980;52.126;5.572;2023-07-30T00:29:23;3.15;;;1.80;;
18249;SDS011;27980;52.126;5.572;2023-07-30T00:31:49;4.28;;;2.10;;
18249;SDS011;27980;52.126;5.572;2023-07-30T00:34:15;3.22;;;1.42;;
18249;SDS011;27980;52.126;5.572;2023-07-30T00:36:42;6.65;;;2.00;;
18249;SDS011;27980;52.126;5.572;2023-07-30T00:39:08;3.67;;;1.70;;
18249;SDS011;27980;52.126;5.572;2023-07-30T00:41:38;6.10;;;2.33;;
18249;SDS011;27980;52.126;5.572;2023-07-30T00:44:03;3.25;;;1.70;;
18249;SDS011;27980;52.126;5.572;2023-07-30T00:46:30;8.15;;;2.03;;
18249;SDS011;27980;52.126;5.572;2023-07-30T00:48:56;4.00;;;1.95;;
18249;SDS011;27980;52.126;5.572;2023-07-30T00:51:23;6.65;;;2.30;;
18249;SDS011;27980;52.126;5.572;2023-07-30T00:53:50;4.55;;;2.20;;
18249;SDS011;27980;52.126;5.572;2023-07-30T00:56:16;5.07;;;1.80;;
18249;SDS011;27980;52.126;5.572;2023-07-30T00:58:45;6.25;;;2.17;;
18249;SDS011;27980;52.126;5.572;2023-07-30T01:01:14;3.60;;;2.00;;
18249;SDS011;27980;52.126;5.572;2023-07-30T01:03:40;6.15;;;2.95;;
18249;SDS011;27980;52.126;5.572;2023-07-30T01:06:07;6.10;;;2.20;;
18249;SDS011;27980;52.126;5.572;2023-07-30T01:08:33;3.80;;;2.00;;
18249;SDS011;27980;52.126;5.572;2023-07-30T01:11:00;5.10;;;1.83;;
18249;SDS011;27980;52.126;5.572;2023-07-30T01:13:27;3.22;;;2.00;;
18249;SDS011;27980;52.126;5.572;2023-07-30T01:15:56;6.30;;;1.55;;
18249;SDS011;27980;52.126;5.572;2023-07-30T01:18:22;7.50;;;2.17;;
18249;SDS011;27980;52.126;5.572;2023-07-30T01:20:53;3.88;;;1.67;;
18249;SDS011;27980;52.126;5.572;2023-07-30T01:23:20;6.68;;;2.03;;
18249;SDS011;27980;52.126;5.572;2023-07-30T01:25:46;4.18;;;1.85;;
18249;SDS011;27980;52.126;5.572;2023-07-30T01:28:15;2.90;;;2.13;;
18249;SDS011;27980;52.126;5.572;2023-07-30T01:30:44;3.92;;;2.03;;
18249;SDS011;27980;52.126;5.572;2023-07-30T01:33:13;4.60;;;2.15;;
18249;SDS011;27980;52.126;5.572;2023-07-30T01:35:39;4.57;;;1.70;;
18249;SDS011;27980;52.126;5.572;2023-07-30T01:38:09;4.50;;;2.25;;
18249;SDS011;27980;52.126;5.572;2023-07-30T01:40:36;4.13;;;1.88;;
18249;SDS011;27980;52.126;5.572;2023-07-30T01:43:02;5.93;;;2.28;;
18249;SDS011;27980;52.126;5.572;2023-07-30T01:45:29;3.78;;;2.00;;
18249;SDS011;27980;52.126;5.572;2023-07-30T01:47:55;4.10;;;1.88;;
18249;SDS011;27980;52.126;5.572;2023-07-30T01:50:22;4.85;;;2.20;;
18249;SDS011;27980;52.126;5.572;2023-07-30T01:52:48;3.50;;;2.10;;
18249;SDS011;27980;52.126;5.572;2023-07-30T01:55:16;2.60;;;1.60;;
18249;SDS011;27980;52.126;5.572;2023-07-30T01:57:43;4.60;;;1.77;;
18249;SDS011;27980;52.126;5.572;2023-07-30T02:00:09;5.45;;;2.50;;
18249;SDS011;27980;52.126;5.572;2023-07-30T02:02:36;7.18;;;2.20;;
18249;SDS011;27980;52.126;5.572;2023-07-30T02:05:03;4.03;;;2.15;;
18249;SDS011;27980;52.126;5.572;2023-07-30T02:07:29;5.63;;;2.15;;
18249;SDS011;27980;52.126;5.572;2023-07-30T02:09:56;5.82;;;2.38;;
18249;SDS011;27980;52.126;5.572;2023-07-30T02:12:24;8.32;;;2.30;;
18249;SDS011;27980;52.126;5.572;2023-07-30T02:14:50;6.28;;;1.73;;
18249;SDS011;27980;52.126;5.572;2023-07-30T02:17:17;5.22;;;2.15;;
18249;SDS011;27980;52.126;5.572;2023-07-30T02:19:45;8.45;;;2.08;;
18249;SDS011;27980;52.126;5.572;2023-07-30T02:22:12;4.65;;;1.92;;
18249;SDS011;27980;52.126;5.572;2023-07-30T02:24:38;6.80;;;2.22;;
18249;SDS011;27980;52.126;5.572;2023-07-30T02:27:05;7.43;;;2.42;;
18249;SDS011;27980;52.126;5.572;2023-07-30T02:29:33;3.67;;;2.10;;
18249;SDS011;27980;52.126;5.572;2023-07-30T02:32:00;5.50;;;1.80;;
18249;SDS011;27980;52.126;5.572;2023-07-30T02:34:26;7.05;;;2.10;;
18249;SDS011;27980;52.126;5.572;2023-07-30T02:36:53;6.60;;;2.03;;
18249;SDS011;27980;52.126;5.572;2023-07-30T02:39:19;3.65;;;1.85;;
18249;SDS011;27980;52.126;5.572;2023-07-30T02:41:45;6.40;;;2.17;;
18249;SDS011;27980;52.126;5.572;2023-07-30T02:44:12;7.65;;;2.40;;
18249;SDS011;27980;52.126;5.572;2023-07-30T02:46:40;9.23;;;2.70;;
18249;SDS011;27980;52.126;5.572;2023-07-30T02:49:06;17.50;;;2.78;;
18249;SDS011;27980;52.126;5.572;2023-07-30T02:51:33;3.05;;;1.88;;
18249;SDS011;27980;52.126;5.572;2023-07-30T02:54:03;9.02;;;2.50;;
18249;SDS011;27980;52.126;5.572;2023-07-30T02:56:29;4.22;;;2.10;;
18249;SDS011;27980;52.126;5.572;2023-07-30T02:58:56;9.02;;;2.33;;
18249;SDS011;27980;52.126;5.572;2023-07-30T03:01:23;4.50;;;1.92;;
18249;SDS011;27980;52.126;5.572;2023-07-30T03:03:50;6.22;;;2.53;;
18249;SDS011;27980;52.126;5.572;2023-07-30T03:06:17;8.48;;;2.35;;
18249;SDS011;27980;52.126;5.572;2023-07-30T03:08:43;5.88;;;2.60;;
18249;SDS011;27980;52.126;5.572;2023-07-30T03:11:10;9.32;;;2.42;;
18249;SDS011;27980;52.126;5.572;2023-07-30T03:13:38;8.27;;;2.42;;
18249;SDS011;27980;52.126;5.572;2023-07-30T03:16:04;10.95;;;2.42;;
18249;SDS011;27980;52.126;5.572;2023-07-30T03:18:30;6.35;;;2.75;;
18249;SDS011;27980;52.126;5.572;2023-07-30T03:20:59;5.78;;;2.80;;
18249;SDS011;27980;52.126;5.572;2023-07-30T03:23:26;8.13;;;2.80;;
18249;SDS011;27980;52.126;5.572;2023-07-30T03:25:52;7.55;;;2.85;;
18249;SDS011;27980;52.126;5.572;2023-07-30T03:28:19;7.20;;;2.67;;
18249;SDS011;27980;52.126;5.572;2023-07-30T03:30:45;5.63;;;2.95;;
18249;SDS011;27980;52.126;5.572;2023-07-30T03:33:12;7.32;;;2.38;;
18249;SDS011;27980;52.126;5.572;2023-07-30T03:35:38;10.57;;;3.10;;
18249;SDS011;27980;52.126;5.572;2023-07-30T03:38:06;4.43;;;2.30;;
18249;SDS011;27980;52.126;5.572;2023-07-30T03:40:32;6.70;;;2.20;;
18249;SDS011;27980;52.126;5.572;2023-07-30T03:42:59;9.07;;;2.35;;
18249;SDS011;27980;52.126;5.572;2023-07-30T03:45:25;13.27;;;3.20;;
18249;SDS011;27980;52.126;5.572;2023-07-30T03:47:52;5.07;;;2.88;;
18249;SDS011;27980;52.126;5.572;2023-07-30T03:50:18;9.93;;;2.78;;
18249;SDS011;27980;52.126;5.572;2023-07-30T03:52:45;6.80;;;3.00;;
18249;SDS011;27980;52.126;5.572;2023-07-30T03:55:13;6.70;;;3.03;;
18249;SDS011;27980;52.126;5.572;2023-07-30T03:57:40;11.32;;;2.58;;
18249;SDS011;27980;52.126;5.572;2023-07-30T04:00:06;12.70;;;4.10;;
18249;SDS011;27980;52.126;5.572;2023-07-30T04:02:33;19.25;;;3.95;;
18249;SDS011;27980;52.126;5.572;2023-07-30T04:05:00;14.95;;;4.47;;
18249;SDS011;27980;52.126;5.572;2023-07-30T04:07:26;11.50;;;3.35;;
18249;SDS011;27980;52.126;5.572;2023-07-30T04:09:53;9.73;;;2.97;;
18249;SDS011;27980;52.126;5.572;2023-07-30T04:12:21;12.18;;;4.00;;
18249;SDS011;27980;52.126;5.572;2023-07-30T04:14:48;9.88;;;3.28;;
18249;SDS011;27980;52.126;5.572;2023-07-30T04:17:14;9.27;;;3.67;;
18249;SDS011;27980;52.126;5.572;2023-07-30T04:19:41;12.00;;;3.92;;
18249;SDS011;27980;52.126;5.572;2023-07-30T04:22:07;13.05;;;4.00;;
18249;SDS011;27980;52.126;5.572;2023-07-30T04:24:34;12.48;;;4.18;;
18249;SDS011;27980;52.126;5.572;2023-07-30T04:27:00;15.10;;;4.22;;
18249;SDS011;27980;52.126;5.572;2023-07-30T04:29:29;14.07;;;4.57;;
18249;SDS011;27980;52.126;5.572;2023-07-30T04:31:56;14.77;;;4.47;;
18249;SDS011;27980;52.126;5.572;2023-07-30T04:34:22;14.63;;;4.35;;
18249;SDS011;27980;52.126;5.572;2023-07-30T04:36:48;16.35;;;4.05;;
18249;SDS011;27980;52.126;5.572;2023-07-30T04:39:15;15.20;;;4.75;;
18249;SDS011;27980;52.126;5.572;2023-07-30T04:41:41;10.57;;;4.20;;
18249;SDS011;27980;52.126;5.572;2023-07-30T04:44:08;15.70;;;4.95;;
18249;SDS011;27980;52.126;5.572;2023-07-30T04:46:35;14.05;;;5.10;;
18249;SDS011;27980;52.126;5.572;2023-07-30T04:49:02;11.85;;;3.97;;
18249;SDS011;27980;52.126;5.572;2023-07-30T04:51:29;12.50;;;5.13;;
18249;SDS011;27980;52.126;5.572;2023-07-30T04:53:55;14.85;;;5.25;;
18249;SDS011;27980;52.126;5.572;2023-07-30T04:56:22;11.57;;;4.28;;
18249;SDS011;27980;52.126;5.572;2023-07-30T04:58:50;15.77;;;5.88;;
18249;SDS011;27980;52.126;5.572;2023-07-30T05:01:16;19.63;;;6.30;;
18249;SDS011;27980;52.126;5.572;2023-07-30T05:03:44;12.93;;;6.32;;
18249;SDS011;27980;52.126;5.572;2023-07-30T05:06:10;10.63;;;4.93;;
18249;SDS011;27980;52.126;5.572;2023-07-30T05:08:37;12.27;;;5.72;;
18249;SDS011;27980;52.126;5.572;2023-07-30T05:11:03;17.85;;;5.97;;
18249;SDS011;27980;52.126;5.572;2023-07-30T05:13:30;14.35;;;6.05;;
18249;SDS011;27980;52.126;5.572;2023-07-30T05:15:56;20.30;;;6.13;;
18249;SDS011;27980;52.126;5.572;2023-07-30T05:18:22;11.25;;;5.63;;
18249;SDS011;27980;52.126;5.572;2023-07-30T05:20:50;16.98;;;5.95;;
18249;SDS011;27980;52.126;5.572;2023-07-30T05:23:17;10.73;;;5.75;;
18249;SDS011;27980;52.126;5.572;2023-07-30T05:25:48;17.95;;;6.13;;
18249;SDS011;27980;52.126;5.572;2023-07-30T05:28:14;15.45;;;6.18;;
18249;SDS011;27980;52.126;5.572;2023-07-30T05:30:41;18.45;;;6.57;;
18249;SDS011;27980;52.126;5.572;2023-07-30T05:33:07;15.77;;;5.82;;
18249;SDS011;27980;52.126;5.572;2023-07-30T05:35:34;16.52;;;5.63;;
18249;SDS011;27980;52.126;5.572;2023-07-30T05:38:02;13.95;;;6.05;;
18249;SDS011;27980;52.126;5.572;2023-07-30T05:40:28;16.70;;;5.88;;
18249;SDS011;27980;52.126;5.572;2023-07-30T05:42:55;14.25;;;5.63;;
18249;SDS011;27980;52.126;5.572;2023-07-30T05:45:21;18.42;;;4.90;;
18249;SDS011;27980;52.126;5.572;2023-07-30T05:47:47;11.73;;;5.07;;
18249;SDS011;27980;52.126;5.572;2023-07-30T05:50:14;10.60;;;4.97;;
18249;SDS011;27980;52.126;5.572;2023-07-30T05:52:40;15.70;;;4.93;;
18249;SDS011;27980;52.126;5.572;2023-07-30T05:55:09;8.23;;;4.50;;
18249;SDS011;27980;52.126;5.572;2023-07-30T05:57:36;19.05;;;6.47;;
18249;SDS011;27980;52.126;5.572;2023-07-30T06:00:05;14.85;;;4.97;;
18249;SDS011;27980;52.126;5.572;2023-07-30T06:02:33;15.63;;;5.28;;
18249;SDS011;27980;52.126;5.572;2023-07-30T06:04:59;16.00;;;5.72;;
18249;SDS011;27980;52.126;5.572;2023-07-30T06:07:26;21.50;;;5.40;;
18249;SDS011;27980;52.126;5.572;2023-07-30T06:09:52;17.60;;;5.15;;
18249;SDS011;27980;52.126;5.572;2023-07-30T06:12:20;11.32;;;5.03;;
18249;SDS011;27980;52.126;5.572;2023-07-30T06:14:46;13.07;;;5.60;;
18249;SDS011;27980;52.126;5.572;2023-07-30T06:17:13;16.02;;;5.78;;
18249;SDS011;27980;52.126;5.572;2023-07-30T06:19:39;19.05;;;6.75;;
18249;SDS011;27980;52.126;5.572;2023-07-30T06:22:06;12.70;;;5.57;;
18249;SDS011;27980;52.126;5.572;2023-07-30T06:24:32;14.13;;;5.35;;
18249;SDS011;27980;52.126;5.572;2023-07-30T06:26:59;15.02;;;6.43;;
18249;SDS011;27980;52.126;5.572;2023-07-30T06:29:27;12.90;;;5.68;;
18249;SDS011;27980;52.126;5.572;2023-07-30T06:31:53;11.70;;;6.35;;
18249;SDS011;27980;52.126;5.572;2023-07-30T06:34:20;15.75;;;6.25;;
18249;SDS011;27980;52.126;5.572;2023-07-30T06:36:46;15.98;;;6.00;;
18249;SDS011;27980;52.126;5.572;2023-07-30T06:39:12;9.90;;;5.68;;
18249;SDS011;27980;52.126;5.572;2023-07-30T06:41:39;13.23;;;6.07;;
18249;SDS011;27980;52.126;5.572;2023-07-30T06:44:05;16.15;;;5.90;;
18249;SDS011;27980;52.126;5.572;2023-07-30T06:46:33;15.27;;;5.78;;
18249;SDS011;27980;52.126;5.572;2023-07-30T06:48:59;13.30;;;5.03;;
18249;SDS011;27980;52.126;5.572;2023-07-30T06:51:26;13.18;;;5.60;;
18249;SDS011;27980;52.126;5.572;2023-07-30T06:53:52;13.60;;;5.32;;
18249;SDS011;27980;52.126;5.572;2023-07-30T06:56:19;12.05;;;5.15;;
18249;SDS011;27980;52.126;5.572;2023-07-30T06:58:45;12.35;;;4.97;;
18249;SDS011;27980;52.126;5.572;2023-07-30T07:01:12;11.23;;;4.57;;
18249;SDS011;27980;52.126;5.572;2023-07-30T07:03:40;11.10;;;5.40;;
18249;SDS011;27980;52.126;5.572;2023-07-30T07:06:06;12.48;;;4.43;;
18249;SDS011;27980;52.126;5.572;2023-07-30T07:08:33;11.90;;;4.78;;
18249;SDS011;27980;52.126;5.572;2023-07-30T07:10:59;14.48;;;4.82;;
18249;SDS011;27980;52.126;5.572;2023-07-30T07:13:26;11.73;;;4.30;;
18249;SDS011;27980;52.126;5.572;2023-07-30T07:15:52;15.30;;;4.82;;
18249;SDS011;27980;52.126;5.572;2023-07-30T07:18:18;12.40;;;4.90;;
18249;SDS011;27980;52.126;5.572;2023-07-30T07:20:46;8.90;;;4.80;;
18249;SDS011;27980;52.126;5.572;2023-07-30T07:23:12;7.20;;;3.67;;
18249;SDS011;27980;52.126;5.572;2023-07-30T07:25:39;8.98;;;4.03;;
18249;SDS011;27980;52.126;5.572;2023-07-30T07:28:05;11.80;;;4.70;;
18249;SDS011;27980;52.126;5.572;2023-07-30T07:30:34;10.40;;;4.30;;
18249;SDS011;27980;52.126;5.572;2023-07-30T07:33:01;10.88;;;4.28;;
18249;SDS011;27980;52.126;5.572;2023-07-30T07:35:27;11.98;;;3.92;;
18249;SDS011;27980;52.126;5.572;2023-07-30T07:37:57;11.63;;;4.43;;
18249;SDS011;27980;52.126;5.572;2023-07-30T07:40:24;10.18;;;4.03;;
18249;SDS011;27980;52.126;5.572;2023-07-30T07:42:50;11.18;;;4.13;;
18249;SDS011;27980;52.126;5.572;2023-07-30T07:45:17;9.02;;;3.83;;
18249;SDS011;27980;52.126;5.572;2023-07-30T07:47:43;10.02;;;3.70;;
18249;SDS011;27980;52.126;5.572;2023-07-30T07:50:10;7.15;;;3.30;;
18249;SDS011;27980;52.126;5.572;2023-07-30T07:52:36;12.68;;;3.08;;
18249;SDS011;27980;52.126;5.572;2023-07-30T07:55:05;19.80;;;3.85;;
18249;SDS011;27980;52.126;5.572;2023-07-30T07:57:31;4.13;;;2.05;;
18249;SDS011;27980;52.126;5.572;2023-07-30T07:59:58;7.10;;;2.65;;
18249;SDS011;27980;52.126;5.572;2023-07-30T08:02:24;11.15;;;3.33;;
18249;SDS011;27980;52.126;5.572;2023-07-30T08:04:51;6.82;;;2.65;;
18249;SDS011;27980;52.126;5.572;2023-07-30T08:07:18;7.97;;;2.63;;
18249;SDS011;27980;52.126;5.572;2023-07-30T08:09:46;9.25;;;2.28;;
18249;SDS011;27980;52.126;5.572;2023-07-30T08:12:15;12.98;;;2.88;;
18249;SDS011;27980;52.126;5.572;2023-07-30T08:14:41;8.13;;;2.80;;
18249;SDS011;27980;52.126;5.572;2023-07-30T08:17:08;7.43;;;2.40;;
18249;SDS011;27980;52.126;5.572;2023-07-30T08:19:34;6.43;;;2.20;;
18249;SDS011;27980;52.126;5.572;2023-07-30T08:22:01;8.38;;;2.28;;
18249;SDS011;27980;52.126;5.572;2023-07-30T08:24:27;11.50;;;2.47;;
18249;SDS011;27980;52.126;5.572;2023-07-30T08:26:54;9.20;;;2.70;;
18249;SDS011;27980;52.126;5.572;2023-07-30T08:29:24;8.43;;;2.40;;
18249;SDS011;27980;52.126;5.572;2023-07-30T08:31:50;8.10;;;2.45;;
18249;SDS011;27980;52.126;5.572;2023-07-30T08:34:17;7.22;;;2.13;;
18249;SDS011;27980;52.126;5.572;2023-07-30T08:36:43;7.38;;;2.30;;
18249;SDS011;27980;52.126;5.572;2023-07-30T08:39:10;10.30;;;1.83;;
18249;SDS011;27980;52.126;5.572;2023-07-30T08:41:37;8.15;;;2.28;;
18249;SDS011;27980;52.126;5.572;2023-07-30T08:44:03;6.63;;;1.55;;
18249;SDS011;27980;52.126;5.572;2023-07-30T08:46:31;6.72;;;1.83;;
18249;SDS011;27980;52.126;5.572;2023-07-30T08:48:58;5.53;;;2.20;;
18249;SDS011;27980;52.126;5.572;2023-07-30T08:51:26;13.00;;;2.05;;
18249;SDS011;27980;52.126;5.572;2023-07-30T08:53:54;4.03;;;1.70;;
18249;SDS011;27980;52.126;5.572;2023-07-30T08:56:23;5.78;;;1.65;;
18249;SDS011;27980;52.126;5.572;2023-07-30T08:58:50;5.80;;;1.92;;
18249;SDS011;27980;52.126;5.572;2023-07-30T09:01:23;7.97;;;1.45;;
18249;SDS011;27980;52.126;5.572;2023-07-30T09:03:53;6.25;;;1.50;;
18249;SDS011;27980;52.126;5.572;2023-07-30T09:06:20;5.07;;;1.33;;
18249;SDS011;27980;52.126;5.572;2023-07-30T09:08:46;4.25;;;1.52;;
18249;SDS011;27980;52.126;5.572;2023-07-30T09:11:14;4.82;;;1.45;;
18249;SDS011;27980;52.126;5.572;2023-07-30T09:13:41;5.50;;;1.58;;
18249;SDS011;27980;52.126;5.572;2023-07-30T09:16:08;5.43;;;1.67;;
18249;SDS011;27980;52.126;5.572;2023-07-30T09:18:38;7.70;;;2.05;;
18249;SDS011;27980;52.126;5.572;2023-07-30T09:21:06;4.93;;;1.42;;
18249;SDS011;27980;52.126;5.572;2023-07-30T09:23:33;6.55;;;1.45;;
18249;SDS011;27980;52.126;5.572;2023-07-30T09:26:06;7.30;;;1.80;;
18249;SDS011;27980;52.126;5.572;2023-07-30T09:28:33;8.05;;;2.13;;
18249;SDS011;27980;52.126;5.572;2023-07-30T09:31:00;5.80;;;1.77;;
18249;SDS011;27980;52.126;5.572;2023-07-30T09:33:27;7.38;;;1.77;;
18249;SDS011;27980;52.126;5.572;2023-07-30T09:35:53;5.80;;;1.65;;
18249;SDS011;27980;52.126;5.572;2023-07-30T09:38:22;8.45;;;1.73;;
18249;SDS011;27980;52.126;5.572;2023-07-30T09:40:48;2.47;;;0.93;;
18249;SDS011;27980;52.126;5.572;2023-07-30T09:43:15;2.65;;;1.00;;
18249;SDS011;27980;52.126;5.572;2023-07-30T09:45:44;5.00;;;1.38;;
18249;SDS011;27980;52.126;5.572;2023-07-30T09:48:10;4.18;;;1.23;;
18249;SDS011;27980;52.126;5.572;2023-07-30T09:50:37;5.63;;;1.63;;
18249;SDS011;27980;52.126;5.572;2023-07-30T09:53:04;6.35;;;1.83;;
18249;SDS011;27980;52.126;5.572;2023-07-30T09:55:31;6.40;;;1.58;;
18249;SDS011;27980;52.126;5.572;2023-07-30T09:57:58;4.93;;;1.48;;
18249;SDS011;27980;52.126;5.572;2023-07-30T10:00:24;5.78;;;1.58;;
18249;SDS011;27980;52.126;5.572;2023-07-30T10:02:51;4.38;;;1.30;;
18249;SDS011;27980;52.126;5.572;2023-07-30T10:05:19;4.32;;;1.50;;
18249;SDS011;27980;52.126;5.572;2023-07-30T10:07:47;4.60;;;1.50;;
18249;SDS011;27980;52.126;5.572;2023-07-30T10:10:16;3.63;;;1.05;;
18249;SDS011;27980;52.126;5.572;2023-07-30T10:12:44;5.22;;;1.42;;
18249;SDS011;27980;52.126;5.572;2023-07-30T10:15:10;3.40;;;1.15;;
18249;SDS011;27980;52.126;5.572;2023-07-30T10:17:37;3.90;;;1.15;;
18249;SDS011;27980;52.126;5.572;2023-07-30T10:22:52;3.35;;;1.20;;
18249;SDS011;27980;52.126;5.572;2023-07-30T10:25:21;2.55;;;0.90;;
18249;SDS011;27980;52.126;5.572;2023-07-30T10:27:56;5.22;;;1.08;;
18249;SDS011;27980;52.126;5.572;2023-07-30T10:30:29;4.18;;;1.30;;
18249;SDS011;27980;52.126;5.572;2023-07-30T10:33:00;3.25;;;1.23;;
18249;SDS011;27980;52.126;5.572;2023-07-30T10:35:38;5.72;;;0.85;;
18249;SDS011;27980;52.126;5.572;2023-07-30T10:38:14;3.72;;;1.08;;
18249;SDS011;27980;52.126;5.572;2023-07-30T10:40:41;2.88;;;0.98;;
18249;SDS011;27980;52.126;5.572;2023-07-30T10:43:18;5.40;;;1.23;;
18249;SDS011;27980;52.126;5.572;2023-07-30T10:45:48;2.33;;;0.75;;
18249;SDS011;27980;52.126;5.572;2023-07-30T10:48:15;4.18;;;1.00;;
18249;SDS011;27980;52.126;5.572;2023-07-30T10:50:42;3.05;;;1.23;;
18249;SDS011;27980;52.126;5.572;2023-07-30T10:53:13;5.45;;;1.35;;
18249;SDS011;27980;52.126;5.572;2023-07-30T10:55:40;2.53;;;1.10;;
18249;SDS011;27980;52.126;5.572;2023-07-30T10:58:06;0.90;;;0.57;;
18249;SDS011;27980;52.126;5.572;2023-07-30T11:00:34;6.03;;;0.80;;
18249;SDS011;27980;52.126;5.572;2023-07-30T11:03:00;2.05;;;0.85;;
18249;SDS011;27980;52.126;5.572;2023-07-30T11:05:27;1.55;;;0.70;;
18249;SDS011;27980;52.126;5.572;2023-07-30T11:07:54;1.88;;;1.10;;
18249;SDS011;27980;52.126;5.572;2023-07-30T11:10:21;3.13;;;0.82;;
18249;SDS011;27980;52.126;5.572;2023-07-30T11:12:48;2.72;;;1.15;;
18249;SDS011;27980;52.126;5.572;2023-07-30T11:15:15;3.95;;;0.90;;
18249;SDS011;27980;52.126;5.572;2023-07-30T11:17:43;2.35;;;1.00;;
18249;SDS011;27980;52.126;5.572;2023-07-30T11:20:21;3.25;;;1.00;;
18249;SDS011;27980;52.126;5.572;2023-07-30T11:22:47;2.47;;;0.85;;
18249;SDS011;27980;52.126;5.572;2023-07-30T11:25:17;2.35;;;0.90;;
18249;SDS011;27980;52.126;5.572;2023-07-30T11:27:46;2.20;;;0.70;;
18249;SDS011;27980;52.126;5.572;2023-07-30T11:30:13;3.05;;;0.93;;
18249;SDS011;27980;52.126;5.572;2023-07-30T11:32:41;4.78;;;0.93;;
18249;SDS011;27980;52.126;5.572;2023-07-30T11:35:09;0.65;;;0.40;;
18249;SDS011;27980;52.126;5.572;2023-07-30T11:37:35;2.22;;;0.95;;
18249;SDS011;27980;52.126;5.572;2023-07-30T11:40:05;2.40;;;0.52;;
18249;SDS011;27980;52.126;5.572;2023-07-30T11:42:32;2.85;;;1.00;;
18249;SDS011;27980;52.126;5.572;2023-07-30T11:45:05;6.00;;;0.80;;
18249;SDS011;27980;52.126;5.572;2023-07-30T11:47:42;2.30;;;0.55;;
18249;SDS011;27980;52.126;5.572;2023-07-30T11:50:13;2.85;;;1.00;;
18249;SDS011;27980;52.126;5.572;2023-07-30T11:52:50;1.67;;;0.93;;
18249;SDS011;27980;52.126;5.572;2023-07-30T11:55:17;2.38;;;0.80;;
18249;SDS011;27980;52.126;5.572;2023-07-30T11:57:46;2.85;;;0.80;;
18249;SDS011;27980;52.126;5.572;2023-07-30T12:00:13;1.42;;;0.88;;
18249;SDS011;27980;52.126;5.572;2023-07-30T12:02:39;2.35;;;0.98;;
18249;SDS011;27980;52.126;5.572;2023-07-30T12:05:07;4.20;;;0.80;;
18249;SDS011;27980;52.126;5.572;2023-07-30T12:07:38;5.38;;;0.90;;
18249;SDS011;27980;52.126;5.572;2023-07-30T12:10:09;3.60;;;0.65;;
18249;SDS011;27980;52.126;5.572;2023-07-30T12:12:36;3.63;;;0.75;;
18249;SDS011;27980;52.126;5.572;2023-07-30T12:15:12;0.88;;;0.50;;
18249;SDS011;27980;52.126;5.572;2023-07-30T12:17:38;2.45;;;0.82;;
18249;SDS011;27980;52.126;5.572;2023-07-30T12:20:05;7.10;;;1.00;;
18249;SDS011;27980;52.126;5.572;2023-07-30T12:22:32;1.60;;;0.60;;
18249;SDS011;27980;52.126;5.572;2023-07-30T12:25:02;3.33;;;0.80;;
18249;SDS011;27980;52.126;5.572;2023-07-30T12:27:29;4.13;;;0.88;;
18249;SDS011;27980;52.126;5.572;2023-07-30T12:29:56;2.05;;;0.90;;
18249;SDS011;27980;52.126;5.572;2023-07-30T12:32:22;1.25;;;0.70;;
18249;SDS011;27980;52.126;5.572;2023-07-30T12:34:49;0.93;;;0.47;;
18249;SDS011;27980;52.126;5.572;2023-07-30T12:37:16;0.85;;;0.60;;
18249;SDS011;27980;52.126;5.572;2023-07-30T12:39:42;1.30;;;0.57;;
18249;SDS011;27980;52.126;5.572;2023-07-30T12:42:10;4.95;;;0.70;;
18249;SDS011;27980;52.126;5.572;2023-07-30T12:44:36;1.23;;;0.45;;
18249;SDS011;27980;52.126;5.572;2023-07-30T12:47:03;3.85;;;0.82;;
18249;SDS011;27980;52.126;5.572;2023-07-30T12:49:31;3.25;;;0.57;;
18249;SDS011;27980;52.126;5.572;2023-07-30T12:51:57;1.80;;;0.60;;
18249;SDS011;27980;52.126;5.572;2023-07-30T12:54:24;1.75;;;0.52;;
18249;SDS011;27980;52.126;5.572;2023-07-30T12:56:51;3.85;;;0.70;;
18249;SDS011;27980;52.126;5.572;2023-07-30T12:59:19;2.75;;;0.95;;
18249;SDS011;27980;52.126;5.572;2023-07-30T13:01:45;2.25;;;0.77;;
18249;SDS011;27980;52.126;5.572;2023-07-30T13:04:11;3.88;;;0.60;;
18249;SDS011;27980;52.126;5.572;2023-07-30T13:06:38;1.05;;;0.52;;
18249;SDS011;27980;52.126;5.572;2023-07-30T13:09:05;3.25;;;0.70;;
18249;SDS011;27980;52.126;5.572;2023-07-30T13:11:31;1.55;;;0.60;;
18249;SDS011;27980;52.126;5.572;2023-07-30T13:13:58;1.42;;;0.57;;
18249;SDS011;27980;52.126;5.572;2023-07-30T13:16:26;1.92;;;0.60;;
18249;SDS011;27980;52.126;5.572;2023-07-30T13:18:53;1.20;;;0.55;;
18249;SDS011;27980;52.126;5.572;2023-07-30T13:21:22;1.80;;;0.50;;
18249;SDS011;27980;52.126;5.572;2023-07-30T13:23:48;2.75;;;0.50;;
18249;SDS011;27980;52.126;5.572;2023-07-30T13:26:14;0.65;;;0.45;;
18249;SDS011;27980;52.126;5.572;2023-07-30T13:28:41;0.90;;;0.70;;
18249;SDS011;27980;52.126;5.572;2023-07-30T13:31:07;1.13;;;0.70;;
18249;SDS011;27980;52.126;5.572;2023-07-30T13:33:37;2.55;;;0.70;;
18249;SDS011;27980;52.126;5.572;2023-07-30T13:36:04;3.33;;;0.50;;
18249;SDS011;27980;52.126;5.572;2023-07-30T13:38:31;2.05;;;0.70;;
18249;SDS011;27980;52.126;5.572;2023-07-30T13:40:57;0.63;;;0.43;;
18249;SDS011;27980;52.126;5.572;2023-07-30T13:43:24;0.85;;;0.38;;
18249;SDS011;27980;52.126;5.572;2023-07-30T13:45:50;0.98;;;0.70;;
18249;SDS011;27980;52.126;5.572;2023-07-30T13:48:17;0.40;;;0.40;;
18249;SDS011;27980;52.126;5.572;2023-07-30T13:50:47;1.88;;;0.60;;
18249;SDS011;27980;52.126;5.572;2023-07-30T13:53:13;1.02;;;0.40;;
18249;SDS011;27980;52.126;5.572;2023-07-30T13:55:40;3.10;;;1.23;;
18249;SDS011;27980;52.126;5.572;2023-07-30T13:58:06;1.20;;;0.60;;
18249;SDS011;27980;52.126;5.572;2023-07-30T14:00:33;2.42;;;0.70;;
18249;SDS011;27980;52.126;5.572;2023-07-30T14:02:59;2.70;;;0.70;;
18249;SDS011;27980;52.126;5.572;2023-07-30T14:05:26;2.10;;;0.70;;
18249;SDS011;27980;52.126;5.572;2023-07-30T14:07:55;2.90;;;0.65;;
18249;SDS011;27980;52.126;5.572;2023-07-30T14:10:22;3.13;;;0.70;;
18249;SDS011;27980;52.126;5.572;2023-07-30T14:12:48;3.63;;;1.05;;
18249;SDS011;27980;52.126;5.572;2023-07-30T14:15:15;3.47;;;0.60;;
18249;SDS011;27980;52.126;5.572;2023-07-30T14:17:42;5.53;;;0.57;;
18249;SDS011;27980;52.126;5.572;2023-07-30T14:20:08;2.58;;;0.70;;
18249;SDS011;27980;52.126;5.572;2023-07-30T14:22:35;2.97;;;0.50;;
18249;SDS011;27980;52.126;5.572;2023-07-30T14:25:03;3.40;;;0.68;;
18249;SDS011;27980;52.126;5.572;2023-07-30T14:27:30;1.48;;;0.57;;
18249;SDS011;27980;52.126;5.572;2023-07-30T14:29:57;4.88;;;0.68;;
18249;SDS011;27980;52.126;5.572;2023-07-30T14:32:24;3.92;;;0.82;;
18249;SDS011;27980;52.126;5.572;2023-07-30T14:34:50;2.05;;;0.50;;
18249;SDS011;27980;52.126;5.572;2023-07-30T14:37:17;2.08;;;0.70;;
18249;SDS011;27980;52.126;5.572;2023-07-30T14:39:45;1.38;;;0.55;;
18249;SDS011;27980;52.126;5.572;2023-07-30T14:42:13;3.72;;;0.80;;
18249;SDS011;27980;52.126;5.572;2023-07-30T14:44:40;2.85;;;0.88;;